Time;durP1;ratioP1;P1;durP2;ratioP2;P2;SDS_P1;SDS_P2;PMS_P1;PMS_P2;Temp;Humidity;BMP_temperature;BMP_pressure;BME280_temperature;BME280_humidity;BME280_pressure;Samples;Min_cycle;Max_cycle;Signal;HPM_P1;HPM_P2
2023/01/07 00:01:23;;;;;;;4.93;2.53;;;;;;;16.64;70.88;101481.56;6216529;23;20001;-76
2023/01/07 00:03:51;;;;;;;3.90;2.33;;;;;;;16.63;71.22;101475.47;6179685;23;20009;-75
2023/01/07 00:06:25;;;;;;;3.88;2.30;;;;;;;16.63;70.63;101483.28;6215071;23;20062;-77
2023/01/07 00:08:53;;;;;;;4.32;2.20;;;;;;;16.63;71.43;101478.06;6190322;23;20004;-77
2023/01/07 00:11:21;;;;;;;5.22;2.67;;;;;;;16.63;71.38;101483.28;6214985;23;20087;-76
2023/01/07 00:13:52;;;;;;;4.18;2.10;;;;;;;16.63;70.97;101480.66;6189791;23;20008;-76
2023/01/07 00:16:20;;;;;;;4.28;2.22;;;;;;;16.63;70.68;101475.47;6216276;23;20001;-76
2023/01/07 00:18:46;;;;;;;5.05;2.63;;;;;;;16.62;70.61;101473.75;6215113;23;20005;-75
2023/01/07 00:21:14;;;;;;;4.50;2.17;;;;;;;16.64;70.61;101473.78;6190130;23;20095;-75
2023/01/07 00:23:41;;;;;;;3.88;2.38;;;;;;;16.64;70.63;101468.56;6189826;23;20487;-75
2023/01/07 00:26:10;;;;;;;3.95;2.08;;;;;;;16.63;70.59;101466.81;6189788;23;20011;-76
2023/01/07 00:28:38;;;;;;;4.07;2.40;;;;;;;16.64;71.02;101473.78;6189785;23;19996;-76
2023/01/07 00:31:09;;;;;;;3.70;2.03;;;;;;;16.63;70.64;101477.22;6216192;23;20000;-76
2023/01/07 00:33:34;;;;;;;3.78;2.10;;;;;;;16.63;71.28;101469.41;6216328;23;20000;-76
2023/01/07 00:36:01;;;;;;;4.43;2.05;;;;;;;16.62;70.96;101468.56;6189981;23;20015;-75
2023/01/07 00:38:27;;;;;;;4.32;2.20;;;;;;;16.62;70.94;101473.75;6189504;23;20083;-75
2023/01/07 00:40:52;;;;;;;3.90;2.00;;;;;;;16.62;70.63;101465.97;6214701;23;20035;-75
2023/01/07 00:43:18;;;;;;;4.80;1.90;;;;;;;16.63;70.59;101467.69;6214303;23;20000;-76
2023/01/07 00:45:43;;;;;;;3.13;1.83;;;;;;;16.62;70.55;101460.75;6215096;23;20009;-76
2023/01/07 00:48:09;;;;;;;3.70;1.92;;;;;;;16.63;70.43;101453.81;6189793;23;20413;-77
2023/01/07 00:50:35;;;;;;;4.38;1.77;;;;;;;16.63;70.69;101451.22;6189254;23;20028;-75
2023/01/07 00:53:02;;;;;;;3.25;2.00;;;;;;;16.63;70.43;101453.81;6191497;23;20392;-75
2023/01/07 00:55:28;;;;;;;2.67;1.70;;;;;;;16.62;70.89;101450.38;6189611;23;20031;-76
2023/01/07 00:57:54;;;;;;;3.22;1.70;;;;;;;16.64;70.49;101452.97;6214634;23;20008;-75
2023/01/07 01:00:21;;;;;;;3.28;1.75;;;;;;;16.63;71.03;101451.22;6189223;23;20001;-75
2023/01/07 01:02:48;;;;;;;4.18;1.75;;;;;;;16.63;70.30;101443.44;6189302;23;20005;-75
2023/01/07 01:05:14;;;;;;;5.55;2.08;;;;;;;16.63;70.66;101444.28;6214583;23;20096;-75
2023/01/07 01:07:40;;;;;;;2.88;1.83;;;;;;;16.62;70.85;101434.78;6216161;23;20072;-76
2023/01/07 01:10:08;;;;;;;4.60;1.70;;;;;;;16.63;70.71;101426.09;6214529;23;20532;-76
2023/01/07 01:12:34;;;;;;;2.78;1.67;;;;;;;16.62;70.89;101426.13;6189427;23;20012;-76
2023/01/07 01:15:05;;;;;;;2.95;2.00;;;;;;;16.63;70.86;101425.25;6189376;23;20008;-75
2023/01/07 01:17:32;;;;;;;2.97;1.70;;;;;;;16.63;70.71;101422.63;6189621;23;20013;-75
2023/01/07 01:19:57;;;;;;;3.15;1.98;;;;;;;16.62;71.13;101418.31;6216121;23;20477;-77
2023/01/07 01:22:23;;;;;;;2.80;1.73;;;;;;;16.61;70.79;101413.97;6214466;23;20094;-76
2023/01/07 01:24:49;;;;;;;2.78;1.65;;;;;;;16.62;70.58;101418.31;6189321;23;20325;-76
2023/01/07 01:27:14;;;;;;;3.13;1.60;;;;;;;16.62;70.73;101407.94;6215937;23;20430;-75
2023/01/07 01:29:40;;;;;;;2.47;1.70;;;;;;;16.62;70.95;101405.34;6214702;23;20019;-76
2023/01/07 01:32:05;;;;;;;3.10;1.63;;;;;;;16.63;70.72;101401.84;6214270;23;20036;-76
2023/01/07 01:34:31;;;;;;;2.55;1.60;;;;;;;16.61;71.20;101406.19;6189649;23;20012;-78
2023/01/07 01:36:56;;;;;;;2.40;1.50;;;;;;;16.62;70.55;101405.34;6189624;23;20015;-77
2023/01/07 01:39:22;;;;;;;2.33;1.45;;;;;;;16.62;70.89;101415.72;6189226;23;20396;-77
2023/01/07 01:41:47;;;;;;;3.55;1.58;;;;;;;16.62;70.47;101415.72;6214513;23;20008;-76
2023/01/07 01:44:36;;;;;;;2.08;1.50;;;;;;;16.62;70.39;101413.97;6189318;23;20437;-76
2023/01/07 01:47:05;;;;;;;2.83;1.67;;;;;;;16.60;70.19;101407.91;6215689;23;20127;-77
2023/01/07 01:49:38;;;;;;;2.67;1.63;;;;;;;16.61;70.72;101412.28;6188941;23;20150;-76
2023/01/07 01:52:16;;;;;;;3.05;1.60;;;;;;;16.62;70.45;101415.72;6189604;23;20008;-77
2023/01/07 01:54:47;;;;;;;2.75;1.48;;;;;;;16.60;70.64;101405.31;6217411;23;20004;-75
2023/01/07 01:57:15;;;;;;;2.70;1.60;;;;;;;16.61;70.69;101404.47;6217606;23;20004;-76
2023/01/07 01:59:44;;;;;;;2.55;1.65;;;;;;;16.61;70.29;101409.66;6190916;23;20009;-75
2023/01/07 02:02:11;;;;;;;2.35;1.50;;;;;;;16.61;70.61;101401.88;6190966;23;20004;-77
2023/01/07 02:04:37;;;;;;;1.90;1.30;;;;;;;16.61;70.28;101409.66;6191076;23;20004;-77
2023/01/07 02:07:12;;;;;;;3.10;1.60;;;;;;;16.61;71.31;101403.56;6191276;23;20058;-76
2023/01/07 02:09:38;;;;;;;1.50;1.27;;;;;;;16.60;70.00;101407.91;6217533;23;20005;-76
2023/01/07 02:12:21;;;;;;;3.80;1.50;;;;;;;16.61;70.05;101409.66;6190963;23;20167;-76
2023/01/07 02:15:14;;;;;;;3.20;1.42;;;;;;;16.61;70.24;101409.66;6216447;23;20020;-76
2023/01/07 02:18:13;;;;;;;2.97;1.30;;;;;;;16.62;70.35;101410.53;6220200;23;20421;-78
2023/01/07 02:20:39;;;;;;;2.10;1.33;;;;;;;16.62;71.07;101420.91;6215727;23;20099;-76
2023/01/07 02:23:19;;;;;;;2.22;1.38;;;;;;;16.60;70.50;101420.03;6215909;23;20043;-76
2023/01/07 02:26:27;;;;;;;2.05;1.55;;;;;;;16.59;69.98;101416.59;6190664;23;20005;-77
2023/01/07 02:29:24;;;;;;;2.28;1.30;;;;;;;16.62;70.08;101418.31;6217457;23;20004;-76
2023/01/07 02:32:11;;;;;;;2.55;1.33;;;;;;;16.61;70.12;101412.28;6215803;23;20337;-77
2023/01/07 02:34:45;;;;;;;2.30;1.42;;;;;;;16.61;69.82;101420.06;6216273;23;20479;-76
2023/01/07 02:37:23;;;;;;;1.98;1.20;;;;;;;16.61;70.40;101408.78;6217317;23;20005;-75
2023/01/07 02:40:13;;;;;;;2.50;1.35;;;;;;;16.62;70.42;101411.38;6217145;23;20007;-75
2023/01/07 02:43:04;;;;;;;2.50;1.42;;;;;;;16.61;70.67;101413.97;6190737;23;20005;-75
2023/01/07 02:45:35;;;;;;;2.22;1.20;;;;;;;16.59;70.33;101418.28;6217186;23;19997;-75
2023/01/07 02:48:10;;;;;;;2.58;1.27;;;;;;;16.59;70.33;101414.00;6190498;23;20004;-75
2023/01/07 02:50:36;;;;;;;2.75;1.33;;;;;;;16.59;70.18;101403.59;6186306;23;20021;-85
2023/01/07 02:53:03;;;;;;;3.58;1.23;;;;;;;16.59;70.13;101416.59;6147358;23;20057;-75
2023/01/07 02:55:47;;;;;;;2.05;1.25;;;;;;;16.59;70.59;101410.50;6185658;23;20001;-75
2023/01/07 02:58:30;;;;;;;1.98;1.10;;;;;;;16.59;70.38;101406.19;6187271;23;20036;-86
2023/01/07 03:01:26;;;;;;;1.90;1.25;;;;;;;16.58;70.03;101407.03;6193825;23;20007;-87
2023/01/07 03:04:26;;;;;;;1.40;1.00;;;;;;;16.58;69.38;101394.03;6166514;23;20020;-86
2023/01/07 03:07:09;;;;;;;2.30;1.20;;;;;;;16.58;69.32;101399.25;6191607;23;20009;-86
2023/01/07 03:09:55;;;;;;;2.00;1.20;;;;;;;16.58;69.91;101391.44;6188164;23;20005;-86
2023/01/07 03:12:41;;;;;;;1.88;1.10;;;;;;;16.58;69.94;101391.44;6187958;23;20005;-86
2023/01/07 03:15:17;;;;;;;1.95;1.30;;;;;;;16.58;69.60;101385.38;6190283;23;20001;-87
2023/01/07 03:18:18;;;;;;;1.88;1.10;;;;;;;16.58;70.09;101385.38;6163992;23;20009;-86
2023/01/07 03:20:48;;;;;;;1.70;1.20;;;;;;;16.57;69.46;101381.03;6178500;23;20013;-86
2023/01/07 03:23:18;;;;;;;1.65;1.10;;;;;;;16.58;69.67;101382.78;6186817;23;20083;-75
2023/01/07 03:25:47;;;;;;;1.60;1.00;;;;;;;16.58;70.09;101381.06;6185456;23;19997;-75
2023/01/07 03:28:18;;;;;;;1.63;1.10;;;;;;;16.57;69.70;101375.84;6185724;23;20016;-75
2023/01/07 03:30:46;;;;;;;2.45;1.20;;;;;;;16.58;70.29;101370.66;6186945;23;19997;-75
2023/01/07 03:33:20;;;;;;;2.20;1.30;;;;;;;16.56;69.48;101367.19;6187378;23;20001;-86
2023/01/07 03:35:48;;;;;;;1.70;1.05;;;;;;;16.57;69.49;101357.66;6187786;23;20062;-85
2023/01/07 03:38:16;;;;;;;1.65;1.02;;;;;;;16.57;69.61;101349.84;6187932;23;20009;-88
2023/01/07 03:40:42;;;;;;;1.77;1.20;;;;;;;16.57;69.41;101365.44;6187382;23;20009;-87
2023/01/07 03:43:17;;;;;;;2.42;1.20;;;;;;;16.57;69.16;101344.66;6140681;23;20438;-82
2023/01/07 03:45:43;;;;;;;1.90;1.25;;;;;;;16.58;70.34;101341.22;6188808;23;20005;-85
2023/01/07 03:48:08;;;;;;;3.45;1.40;;;;;;;16.57;69.50;101334.28;6163015;23;20318;-88
2023/01/07 03:50:34;;;;;;;1.90;1.10;;;;;;;16.56;69.31;101333.41;6198941;23;20008;-84
2023/01/07 03:52:59;;;;;;;2.53;1.10;;;;;;;16.56;69.67;101325.63;6190156;23;20005;-75
2023/01/07 03:55:25;;;;;;;2.33;1.10;;;;;;;16.58;70.06;101330.81;6189884;23;20011;-76
2023/01/07 03:57:50;;;;;;;1.98;1.10;;;;;;;16.56;69.44;101325.63;6190272;23;20362;-76
2023/01/07 04:00:16;;;;;;;2.05;1.08;;;;;;;16.59;69.44;101332.56;6189804;23;20448;-76
2023/01/07 04:02:42;;;;;;;2.33;1.15;;;;;;;16.58;69.49;101326.50;6189887;23;20326;-77
2023/01/07 04:05:08;;;;;;;1.95;1.05;;;;;;;16.60;69.49;101323.91;6164741;23;20091;-76
2023/01/07 04:07:34;;;;;;;1.77;0.95;;;;;;;16.60;69.15;101322.16;6190732;23;20459;-77
2023/01/07 04:10:00;;;;;;;1.65;1.08;;;;;;;16.60;69.39;101329.97;6189682;23;20013;-76
2023/01/07 04:12:25;;;;;;;2.03;1.30;;;;;;;16.60;69.32;101329.09;6214844;23;20011;-76
2023/01/07 04:14:53;;;;;;;2.00;1.10;;;;;;;16.60;69.47;101321.31;6190205;23;20008;-76
2023/01/07 04:17:21;;;;;;;2.05;1.27;;;;;;;16.59;69.47;101317.84;6190185;23;20008;-78
2023/01/07 04:19:49;;;;;;;2.13;1.20;;;;;;;16.58;69.12;101310.91;6189725;23;20013;-75
2023/01/07 04:22:17;;;;;;;2.30;1.15;;;;;;;16.59;69.48;101307.47;6165080;23;20004;-76
2023/01/07 04:24:43;;;;;;;2.92;1.08;;;;;;;16.59;68.90;101302.25;6214922;23;20043;-76
2023/01/07 04:27:09;;;;;;;1.83;1.00;;;;;;;16.59;69.40;101302.25;6214907;23;20498;-78
2023/01/07 04:29:34;;;;;;;1.75;1.00;;;;;;;16.60;69.06;101296.19;6189471;23;20054;-76
2023/01/07 04:32:02;;;;;;;1.85;1.10;;;;;;;16.60;68.91;101303.97;6189702;23;20392;-76
2023/01/07 04:34:27;;;;;;;1.92;1.20;;;;;;;16.59;69.10;101299.66;6189629;23;20429;-76
2023/01/07 04:36:53;;;;;;;3.03;0.90;;;;;;;16.59;69.17;101294.47;6189607;23;20035;-77
2023/01/07 04:39:20;;;;;;;1.95;0.93;;;;;;;16.60;69.08;101288.38;6214541;23;20055;-76
2023/01/07 04:41:46;;;;;;;2.85;1.13;;;;;;;16.59;68.95;101291.88;6189889;23;20009;-85
2023/01/07 04:44:11;;;;;;;3.67;1.10;;;;;;;16.60;68.67;101287.53;6214738;23;20004;-84
2023/01/07 04:46:37;;;;;;;2.10;1.00;;;;;;;16.59;68.77;101285.78;6214805;23;20013;-83
2023/01/07 04:49:02;;;;;;;1.80;1.00;;;;;;;16.58;69.03;101284.06;6189533;23;20013;-85
2023/01/07 04:51:28;;;;;;;1.65;1.02;;;;;;;16.59;68.92;101275.38;6190097;23;20333;-84
2023/01/07 04:53:55;;;;;;;1.92;1.20;;;;;;;16.58;69.18;101271.06;6189688;23;20012;-82
2023/01/07 04:56:20;;;;;;;1.42;0.93;;;;;;;16.57;69.04;101267.59;6214774;23;20471;-85
2023/01/07 04:58:46;;;;;;;1.83;0.90;;;;;;;16.57;68.99;101266.72;6189563;23;20009;-85
2023/01/07 05:01:12;;;;;;;2.20;1.30;;;;;;;16.58;68.41;101258.06;6216388;23;20007;-84
2023/01/07 05:03:37;;;;;;;1.50;1.00;;;;;;;16.58;69.21;101255.47;6214605;23;20009;-85
2023/01/07 05:06:03;;;;;;;1.50;0.90;;;;;;;16.60;69.16;101261.53;6189692;23;20012;-84
2023/01/07 05:08:28;;;;;;;1.95;0.93;;;;;;;16.61;69.24;101258.97;6189715;23;20051;-80
2023/01/07 05:10:54;;;;;;;1.70;0.98;;;;;;;16.63;69.41;101253.75;6189838;23;20004;-80
2023/01/07 05:13:21;;;;;;;1.90;1.05;;;;;;;16.65;69.09;101255.47;6214723;23;20036;-82
2023/01/07 05:15:46;;;;;;;3.03;1.30;;;;;;;16.66;69.19;101253.75;6216043;23;20020;-84
2023/01/07 05:18:12;;;;;;;1.80;1.00;;;;;;;16.67;69.02;101237.28;6189805;23;20351;-83
2023/01/07 05:20:37;;;;;;;1.42;0.90;;;;;;;16.69;68.75;101239.91;6189782;23;20015;-85
2023/01/07 05:23:04;;;;;;;2.20;1.00;;;;;;;16.69;68.89;101240.75;6164741;23;20318;-81
2023/01/07 05:25:30;;;;;;;2.13;1.10;;;;;;;16.70;69.02;101241.63;6189412;23;20009;-84
2023/01/07 05:27:56;;;;;;;1.70;1.10;;;;;;;16.71;69.80;101236.44;6189539;23;20084;-83
2023/01/07 05:30:21;;;;;;;1.83;1.10;;;;;;;16.72;68.95;101245.09;6191369;23;20424;-85
2023/01/07 05:32:46;;;;;;;0.98;0.80;;;;;;;16.72;69.96;101240.75;6216883;23;20005;-83
2023/01/07 05:35:12;;;;;;;1.58;1.02;;;;;;;16.73;69.32;101242.50;6192863;23;20062;-84
2023/01/07 05:37:37;;;;;;;1.67;1.02;;;;;;;16.73;69.44;101233.84;6192735;23;20009;-85
2023/01/07 05:40:03;;;;;;;1.65;1.00;;;;;;;16.74;69.46;101244.22;6191226;23;20391;-85
2023/01/07 05:42:29;;;;;;;1.92;0.95;;;;;;;16.75;68.98;101234.72;6191194;23;20020;-84
2023/01/07 05:44:54;;;;;;;1.95;1.00;;;;;;;16.76;69.29;101224.28;6191241;23;20012;-84
2023/01/07 05:47:20;;;;;;;1.40;1.02;;;;;;;16.76;69.28;101218.22;6191262;23;20012;-83
2023/01/07 05:49:45;;;;;;;1.33;0.90;;;;;;;16.77;69.49;101227.78;6216058;23;20501;-84
2023/01/07 05:52:10;;;;;;;1.40;1.00;;;;;;;16.78;69.61;101221.69;6191654;23;20433;-84
2023/01/07 05:54:36;;;;;;;1.88;0.85;;;;;;;16.77;69.18;101214.78;6216234;23;20019;-77
2023/01/07 05:57:01;;;;;;;1.65;0.85;;;;;;;16.77;69.43;101217.38;6190903;23;20079;-76
2023/01/07 05:59:26;;;;;;;2.38;0.90;;;;;;;16.78;69.00;101219.09;6191006;23;20059;-76
2023/01/07 06:01:52;;;;;;;1.58;0.90;;;;;;;16.78;69.06;101211.31;6190680;23;20338;-77
2023/01/07 06:04:17;;;;;;;1.55;0.95;;;;;;;16.80;69.43;101214.81;6191053;23;20004;-77
2023/01/07 06:06:43;;;;;;;1.42;1.00;;;;;;;16.79;69.43;101213.91;6190968;23;20455;-76
2023/01/07 06:09:11;;;;;;;1.88;1.10;;;;;;;16.80;69.54;101207.00;6216261;23;20084;-76
2023/01/07 06:11:36;;;;;;;2.20;0.85;;;;;;;16.80;69.37;101207.00;6166405;23;20393;-77
2023/01/07 06:14:02;;;;;;;3.05;1.00;;;;;;;16.79;69.30;101200.91;6190996;23;20015;-76
2023/01/07 06:16:27;;;;;;;1.60;0.98;;;;;;;16.80;69.31;101205.28;6190862;23;20501;-76
2023/01/07 06:18:52;;;;;;;3.58;1.00;;;;;;;16.81;69.65;101183.63;6191221;23;20008;-76
2023/01/07 06:21:20;;;;;;;2.03;1.10;;;;;;;16.82;68.93;101181.88;6191219;23;20475;-76
2023/01/07 06:23:45;;;;;;;1.23;0.90;;;;;;;16.82;68.85;101174.94;6191071;23;20012;-76
2023/01/07 06:26:11;;;;;;;1.35;1.00;;;;;;;16.81;69.70;101175.81;6190753;23;20337;-76
2023/01/07 06:28:36;;;;;;;0.88;0.70;;;;;;;16.82;69.42;101172.34;6215988;23;20099;-77
2023/01/07 06:31:01;;;;;;;1.02;0.70;;;;;;;16.82;69.47;101172.34;6216165;23;20007;-77
2023/01/07 06:33:27;;;;;;;1.10;0.80;;;;;;;16.83;69.46;101171.50;6190864;23;20102;-79
2023/01/07 06:35:52;;;;;;;1.17;0.90;;;;;;;16.84;69.07;101180.16;6218534;23;20366;-78
2023/01/07 06:38:17;;;;;;;1.25;1.05;;;;;;;16.84;69.29;101178.41;6190784;23;20004;-77
2023/01/07 06:40:43;;;;;;;1.50;1.10;;;;;;;16.83;69.37;101171.50;6190074;23;20089;-77
2023/01/07 06:43:09;;;;;;;2.80;1.00;;;;;;;16.86;69.32;101179.28;6219109;23;20349;-78
2023/01/07 06:45:34;;;;;;;1.10;0.80;;;;;;;16.85;69.11;101163.69;6190606;23;20008;-79
2023/01/07 06:47:59;;;;;;;1.67;0.90;;;;;;;16.86;69.93;101170.63;6190631;23;20409;-78
2023/01/07 06:50:25;;;;;;;1.13;1.00;;;;;;;16.87;68.91;101169.75;6190449;23;20096;-77
2023/01/07 06:52:51;;;;;;;1.92;1.00;;;;;;;16.86;69.21;101175.81;6190470;23;20036;-79
2023/01/07 06:55:16;;;;;;;1.40;1.02;;;;;;;16.86;69.26;101170.63;6190520;23;20019;-77
2023/01/07 06:57:42;;;;;;;1.58;1.00;;;;;;;16.87;69.17;101169.75;6215617;23;20008;-78
2023/01/07 07:00:11;;;;;;;1.77;0.90;;;;;;;16.89;68.89;101164.53;6215750;23;20487;-78
2023/01/07 07:02:36;;;;;;;1.88;1.00;;;;;;;16.88;68.91;101160.22;6190257;23;20465;-78
2023/01/07 07:05:01;;;;;;;1.60;1.00;;;;;;;16.91;69.28;101160.22;6190480;23;20015;-78
2023/01/07 07:07:27;;;;;;;1.42;0.80;;;;;;;16.90;68.31;101161.06;6165689;23;20040;-77
2023/01/07 07:09:52;;;;;;;1.48;1.00;;;;;;;16.90;68.84;101154.16;6190543;23;20004;-77
2023/01/07 07:12:20;;;;;;;1.10;0.75;;;;;;;16.91;68.60;101155.03;6190480;23;20449;-78
2023/01/07 07:14:46;;;;;;;1.75;0.90;;;;;;;16.92;68.67;101154.13;6215625;23;20119;-78
2023/01/07 07:17:11;;;;;;;1.10;0.82;;;;;;;16.91;68.96;101140.28;6215966;23;20364;-77
2023/01/07 07:19:37;;;;;;;1.10;0.85;;;;;;;16.91;68.85;101129.88;6216986;23;20436;-78
2023/01/07 07:22:02;;;;;;;1.52;0.90;;;;;;;16.93;68.56;101148.09;6165656;23;20430;-78
2023/01/07 07:24:27;;;;;;;1.33;0.90;;;;;;;16.93;68.71;101135.09;6217023;23;20307;-77
2023/01/07 07:26:53;;;;;;;1.15;0.90;;;;;;;16.97;68.34;101142.00;6190474;23;20016;-78
2023/01/07 07:29:18;;;;;;;1.90;0.80;;;;;;;17.00;68.44;101132.44;6190339;23;20361;-80
2023/01/07 07:31:43;;;;;;;1.55;0.95;;;;;;;17.06;67.87;101136.78;6165115;23;20035;-78
2023/01/07 07:34:09;;;;;;;2.70;1.20;;;;;;;17.11;67.54;101135.03;6190257;23;20334;-78
2023/01/07 07:36:35;;;;;;;2.33;1.70;;;;;;;17.05;67.44;101127.28;6190152;23;20008;-75
2023/01/07 07:39:02;;;;;;;2.83;1.40;;;;;;;17.05;67.79;101122.94;6216816;23;19996;-78
2023/01/07 07:41:29;;;;;;;4.13;1.40;;;;;;;17.09;67.46;101123.75;6215328;23;20031;-76
2023/01/07 07:43:54;;;;;;;2.85;1.17;;;;;;;17.11;67.33;101116.81;6215637;23;20009;-76
2023/01/07 07:46:19;;;;;;;4.18;1.30;;;;;;;17.12;67.28;101115.97;6190194;23;20034;-76
2023/01/07 07:48:48;;;;;;;2.25;1.00;;;;;;;17.14;67.37;101119.44;6215200;23;20436;-76
2023/01/07 07:51:13;;;;;;;2.42;1.10;;;;;;;17.16;67.20;101115.09;6189433;23;20142;-77
2023/01/07 07:53:39;;;;;;;2.70;1.25;;;;;;;17.17;67.02;101109.00;6215183;23;20409;-76
2023/01/07 07:56:10;;;;;;;2.17;1.20;;;;;;;17.19;67.25;101112.47;6216682;23;20004;-76
2023/01/07 07:58:35;;;;;;;1.15;0.90;;;;;;;17.20;66.91;101103.81;6216735;23;20011;-77
2023/01/07 08:01:01;;;;;;;1.95;1.20;;;;;;;17.20;67.24;101103.81;6190666;23;20109;-77
2023/01/07 08:03:26;;;;;;;2.10;1.10;;;;;;;17.23;66.62;101108.13;6165200;23;20083;-77
2023/01/07 08:05:52;;;;;;;2.35;0.90;;;;;;;17.22;66.46;101103.78;6216690;23;20311;-76
2023/01/07 08:08:17;;;;;;;1.33;0.93;;;;;;;17.21;66.73;101108.13;6190016;23;20491;-76
2023/01/07 08:10:43;;;;;;;2.85;1.15;;;;;;;17.18;66.90;101097.75;6190060;23;20008;-76
2023/01/07 08:13:11;;;;;;;1.58;1.10;;;;;;;17.16;67.06;101103.81;6216699;23;20011;-76
2023/01/07 08:15:37;;;;;;;1.30;1.00;;;;;;;17.13;67.38;101106.44;6190135;23;20005;-75
2023/01/07 08:18:08;;;;;;;1.83;1.08;;;;;;;17.11;67.31;101097.75;6189950;23;20082;-76
2023/01/07 08:20:35;;;;;;;2.03;1.20;;;;;;;17.11;66.92;101096.03;6189841;23;20054;-75
2023/01/07 08:23:03;;;;;;;1.95;1.00;;;;;;;17.08;67.21;101084.78;6190733;23;20004;-76
2023/01/07 08:25:29;;;;;;;2.40;1.00;;;;;;;17.05;67.48;101081.31;6216595;23;20001;-75
2023/01/07 08:27:56;;;;;;;2.88;1.02;;;;;;;17.03;67.12;101083.06;6189753;23;20039;-76
2023/01/07 08:30:22;;;;;;;2.35;1.00;;;;;;;17.03;67.54;101082.19;6189734;23;20008;-75
2023/01/07 08:32:47;;;;;;;2.75;1.17;;;;;;;17.02;67.68;101083.06;6216628;23;20058;-76
2023/01/07 08:35:13;;;;;;;2.35;1.10;;;;;;;17.01;67.23;101078.75;6190407;23;20314;-75
2023/01/07 08:37:38;;;;;;;1.38;0.98;;;;;;;16.99;67.04;101083.09;6214530;23;20151;-76
2023/01/07 08:40:05;;;;;;;2.80;1.10;;;;;;;16.99;67.30;101077.88;6214934;23;20012;-77
2023/01/07 08:42:30;;;;;;;1.83;1.00;;;;;;;16.99;67.42;101070.09;6190817;23;20008;-75
2023/01/07 08:44:56;;;;;;;1.85;1.10;;;;;;;16.98;66.86;101066.59;6216337;23;20314;-75
2023/01/07 08:47:21;;;;;;;2.20;1.30;;;;;;;16.98;67.08;101063.13;6189461;23;20445;-76
2023/01/07 08:49:46;;;;;;;1.10;0.80;;;;;;;16.99;66.76;101062.28;6214640;23;20013;-76
2023/01/07 08:52:12;;;;;;;3.60;1.33;;;;;;;17.00;66.72;101062.25;6164475;23;20017;-77
2023/01/07 08:54:37;;;;;;;2.17;1.20;;;;;;;17.01;67.07;101060.53;6214644;23;20036;-76
2023/01/07 08:57:03;;;;;;;1.38;1.00;;;;;;;17.00;67.34;101064.84;6216191;23;20004;-77
2023/01/07 08:59:28;;;;;;;2.97;1.25;;;;;;;16.99;67.61;101054.47;6214768;23;20028;-77
2023/01/07 09:01:53;;;;;;;2.92;1.20;;;;;;;16.84;68.89;101050.19;6214236;23;20500;-76
2023/01/07 09:04:19;;;;;;;1.90;1.10;;;;;;;16.77;67.22;101051.06;6215645;23;20008;-75
2023/01/07 09:06:44;;;;;;;2.92;1.17;;;;;;;16.78;67.49;101050.19;6214524;23;20036;-76
2023/01/07 09:09:10;;;;;;;1.60;1.05;;;;;;;16.77;68.06;101043.25;6214609;23;20004;-76
2023/01/07 09:11:36;;;;;;;1.70;1.10;;;;;;;16.75;68.24;101039.81;6216097;23;20015;-76
2023/01/07 09:14:02;;;;;;;3.78;1.20;;;;;;;16.75;68.27;101052.78;6214519;23;20012;-78
2023/01/07 09:16:27;;;;;;;2.17;1.40;;;;;;;16.75;68.06;101045.84;6214368;23;20009;-75
2023/01/07 09:18:52;;;;;;;1.63;0.90;;;;;;;16.76;68.17;101041.50;6189416;23;20008;-77
2023/01/07 09:21:21;;;;;;;2.17;1.10;;;;;;;16.77;66.99;101041.53;6164531;23;20012;-77
2023/01/07 09:23:46;;;;;;;49.17;12.18;;;;;;;16.79;66.71;101042.38;6215880;23;20020;-76
2023/01/07 09:26:11;;;;;;;51.72;13.55;;;;;;;16.80;67.22;101036.34;6214991;23;20009;-75
2023/01/07 09:28:37;;;;;;;46.78;15.43;;;;;;;16.85;66.55;101032.00;6214454;23;20421;-74
2023/01/07 09:31:03;;;;;;;47.13;14.32;;;;;;;16.88;66.62;101031.13;6189787;23;20040;-77
2023/01/07 09:33:28;;;;;;;45.05;13.27;;;;;;;16.89;66.70;101024.19;6214383;23;20004;-75
2023/01/07 09:35:54;;;;;;;35.15;10.73;;;;;;;16.88;66.87;101027.66;6214232;23;20005;-75
2023/01/07 09:38:19;;;;;;;31.48;9.77;;;;;;;16.88;66.55;101020.72;6214324;23;20054;-75
2023/01/07 09:40:45;;;;;;;34.88;9.40;;;;;;;16.89;66.20;101018.97;6216120;23;20001;-75
2023/01/07 09:43:19;;;;;;;31.27;9.50;;;;;;;16.92;66.40;101018.97;6189244;23;20011;-76
2023/01/07 09:46:04;;;;;;;30.75;8.30;;;;;;;16.94;66.56;101020.72;6214387;23;20007;-74
2023/01/07 09:48:35;;;;;;;32.17;8.63;;;;;;;17.03;67.44;101009.41;6189285;23;20005;-76
2023/01/07 09:51:05;;;;;;;39.47;10.73;;;;;;;17.01;67.40;100999.00;6175956;23;20021;-76
2023/01/07 09:53:36;;;;;;;39.30;9.70;;;;;;;17.00;66.58;100999.84;6185452;23;20012;-76
2023/01/07 09:56:05;;;;;;;30.88;9.15;;;;;;;16.97;67.35;100996.44;6186185;23;20009;-85
2023/01/07 09:58:30;;;;;;;28.65;8.95;;;;;;;16.94;67.59;100993.81;6186535;23;20032;-86
2023/01/07 10:01:11;;;;;;;34.72;8.98;;;;;;;16.92;67.46;100985.16;6160265;23;20001;-83
2023/01/07 10:03:58;;;;;;;25.05;8.23;;;;;;;16.91;67.54;100981.72;6186066;23;20031;-84
2023/01/07 10:06:30;;;;;;;33.28;8.60;;;;;;;16.90;67.44;100980.00;6184475;23;20480;-85
2023/01/07 10:09:22;;;;;;;20.35;7.20;;;;;;;16.90;67.15;100966.09;6186430;23;20085;-83
2023/01/07 10:12:02;;;;;;;19.98;7.00;;;;;;;16.90;67.34;100972.19;6183192;23;20009;-85
2023/01/07 10:15:19;;;;;;;23.10;7.43;;;;;;;16.90;67.17;100961.81;6185699;23;20009;-86
2023/01/07 10:18:11;;;;;;;19.40;7.07;;;;;;;16.91;66.85;100968.72;6148220;23;20337;-85
2023/01/07 10:21:17;;;;;;;22.45;7.40;;;;;;;16.91;67.19;100947.06;6184497;23;20020;-84
2023/01/07 10:23:54;;;;;;;19.35;6.75;;;;;;;16.93;67.46;100945.31;6186836;23;20013;-82
2023/01/07 10:26:41;;;;;;;18.90;6.35;;;;;;;16.93;67.32;100932.31;6187585;23;20008;-82
2023/01/07 10:29:17;;;;;;;19.38;6.72;;;;;;;16.93;67.04;100927.97;6161103;23;20032;-85
2023/01/07 10:31:44;;;;;;;17.45;6.13;;;;;;;16.95;67.97;100920.19;6161406;23;20027;-85
2023/01/07 10:34:18;;;;;;;19.08;5.78;;;;;;;16.94;67.24;100911.53;6187738;23;20001;-86
2023/01/07 10:37:06;;;;;;;15.20;5.80;;;;;;;16.97;66.71;100915.84;6161030;23;20004;-85
2023/01/07 10:39:44;;;;;;;14.68;5.80;;;;;;;16.98;66.94;100909.75;6186131;23;20390;-84
2023/01/07 10:42:34;;;;;;;11.60;5.43;;;;;;;16.98;67.00;100895.00;6187052;23;20001;-84
2023/01/07 10:45:26;;;;;;;17.42;5.88;;;;;;;16.98;66.77;100886.34;6187639;23;20080;-82
2023/01/07 10:48:01;;;;;;;15.70;5.47;;;;;;;16.99;66.73;100882.91;6150148;23;20087;-81
2023/01/07 10:50:35;;;;;;;16.05;5.40;;;;;;;16.99;66.74;100875.97;6193181;23;20019;-83
2023/01/07 10:53:04;;;;;;;16.35;5.07;;;;;;;16.99;66.75;100869.91;6216009;23;20004;-84
2023/01/07 10:55:50;;;;;;;11.88;5.32;;;;;;;16.98;66.62;100871.63;6215954;23;20441;-84
2023/01/07 10:58:16;;;;;;;12.38;5.10;;;;;;;16.99;66.77;100864.69;6217754;23;20102;-81
2023/01/07 11:00:45;;;;;;;13.98;5.00;;;;;;;16.99;66.35;100857.75;6166082;23;20429;-84
2023/01/07 11:03:19;;;;;;;13.10;5.38;;;;;;;17.00;66.59;100849.06;6191085;23;20008;-84
2023/01/07 11:05:48;;;;;;;12.77;5.10;;;;;;;17.00;66.47;100840.41;6190866;23;20007;-84
2023/01/07 11:08:37;;;;;;;13.57;5.00;;;;;;;16.99;66.52;100834.38;6215227;23;20057;-84
2023/01/07 11:11:04;;;;;;;13.43;5.22;;;;;;;16.98;66.35;100821.38;6199380;23;20000;-81
2023/01/07 11:13:32;;;;;;;9.88;4.38;;;;;;;16.96;66.59;100813.59;6190903;23;20011;-83
2023/01/07 11:16:06;;;;;;;9.85;4.78;;;;;;;16.97;66.39;100817.06;6190981;23;20012;-84
2023/01/07 11:18:39;;;;;;;14.02;5.20;;;;;;;16.97;66.60;100811.84;6217494;23;20072;-86
2023/01/07 11:21:05;;;;;;;12.32;4.65;;;;;;;16.97;66.56;100817.06;6217193;23;20078;-86
2023/01/07 11:23:39;;;;;;;10.40;4.40;;;;;;;16.99;66.90;100815.31;6190624;23;20430;-85
2023/01/07 11:26:24;;;;;;;8.90;3.97;;;;;;;16.99;66.59;100803.16;6165601;23;20012;-86
2023/01/07 11:28:53;;;;;;;9.00;4.15;;;;;;;16.98;66.45;100800.56;6217343;23;20448;-85
2023/01/07 11:31:42;;;;;;;14.07;4.32;;;;;;;16.98;66.10;100806.63;6190690;23;20087;-85
2023/01/07 11:34:18;;;;;;;8.98;4.22;;;;;;;16.95;66.19;100791.06;6190591;23;20011;-86
2023/01/07 11:36:44;;;;;;;11.00;4.45;;;;;;;16.95;66.53;100787.59;6216974;23;20488;-86